Time;durP1;ratioP1;P1;durP2;ratioP2;P2;SDS_P1;SDS_P2;PMS_P1;PMS_P2;Temp;Humidity;BMP_temperature;BMP_pressure;BME280_temperature;BME280_humidity;BME280_pressure;Samples;Min_cycle;Max_cycle;Signal;HPM_P1;HPM_P2
2022/08/28 00:00:19;;;;;;;12.85;3.38;;;20.00;80.90;;;;;;5032021;28;20029;-71
2022/08/28 00:02:48;;;;;;;10.60;3.35;;;20.00;80.90;;;;;;5031653;28;20477;-71
2022/08/28 00:05:16;;;;;;;7.20;2.60;;;20.00;80.90;;;;;;5031564;28;20484;-71
2022/08/28 00:07:41;;;;;;;12.00;2.78;;;20.00;81.00;;;;;;5031220;28;20431;-71
2022/08/28 00:10:09;;;;;;;11.52;3.55;;;20.00;81.00;;;;;;5026795;28;20053;-71
2022/08/28 00:12:36;;;;;;;12.75;2.92;;;19.90;81.00;;;;;;5031995;28;20033;-71
2022/08/28 00:15:06;;;;;;;12.55;3.08;;;20.00;81.10;;;;;;5036578;28;20021;-71
2022/08/28 00:17:32;;;;;;;10.80;2.45;;;19.90;81.10;;;;;;5035357;28;20031;-70
2022/08/28 00:19:57;;;;;;;10.55;2.72;;;19.90;81.10;;;;;;5036898;28;20032;-71
2022/08/28 00:22:23;;;;;;;8.65;2.15;;;19.90;81.00;;;;;;5031939;28;20036;-70
2022/08/28 00:24:48;;;;;;;5.57;2.40;;;19.80;80.90;;;;;;5035638;28;20358;-71
2022/08/28 00:29:58;;;;;;;8.85;2.30;;;19.80;80.80;;;;;;5031459;28;20037;-71
2022/08/28 00:32:24;;;;;;;10.68;2.42;;;19.80;80.80;;;;;;5030934;28;20393;-71
2022/08/28 00:34:50;;;;;;;8.35;2.65;;;19.80;80.70;;;;;;5038767;28;20028;-71
2022/08/28 00:37:16;;;;;;;11.55;2.70;;;19.70;80.70;;;;;;5028400;28;20469;-71
2022/08/28 00:39:41;;;;;;;12.07;2.95;;;19.70;80.60;;;;;;5037695;28;20026;-70
2022/08/28 00:42:07;;;;;;;11.90;2.50;;;19.80;80.70;;;;;;5031986;28;20473;-71
2022/08/28 00:44:33;;;;;;;10.93;2.58;;;19.70;80.60;;;;;;5036465;28;20026;-71
2022/08/28 00:46:59;;;;;;;8.32;2.28;;;19.70;80.50;;;;;;5032327;28;20104;-71
2022/08/28 00:49:34;;;;;;;11.00;2.45;;;19.70;80.60;;;;;;5045842;28;20031;-71
2022/08/28 00:52:07;;;;;;;10.00;2.50;;;19.70;80.50;;;;;;5049027;28;20048;-70
2022/08/28 00:54:56;;;;;;;6.47;1.98;;;19.70;80.50;;;;;;5041291;28;20095;-71
2022/08/28 00:57:33;;;;;;;5.97;2.20;;;19.60;80.50;;;;;;5041720;28;20034;-71
2022/08/28 00:59:59;;;;;;;13.52;2.60;;;19.60;80.40;;;;;;5031362;28;20033;-70
2022/08/28 01:02:26;;;;;;;13.93;2.10;;;19.60;80.50;;;;;;5040671;28;20029;-71
2022/08/28 01:04:51;;;;;;;7.38;2.35;;;19.60;80.50;;;;;;5040865;28;20487;-71
2022/08/28 01:07:17;;;;;;;5.93;2.00;;;19.60;81.20;;;;;;5043379;28;20026;-71
2022/08/28 01:09:49;;;;;;;11.57;2.55;;;19.50;80.50;;;;;;5022168;28;20057;-71
2022/08/28 01:12:28;;;;;;;12.30;2.72;;;19.50;80.50;;;;;;5041135;28;20034;-70
2022/08/28 01:15:00;;;;;;;8.35;2.35;;;19.50;80.60;;;;;;5042942;28;20021;-70
2022/08/28 01:17:29;;;;;;;15.75;2.63;;;19.50;80.50;;;;;;5043264;28;20034;-70
2022/08/28 01:19:58;;;;;;;10.38;2.33;;;19.40;80.40;;;;;;5030448;28;20021;-70
2022/08/28 01:22:41;;;;;;;8.02;2.65;;;19.40;80.40;;;;;;5031631;28;20450;-71
2022/08/28 01:25:18;;;;;;;5.28;2.40;;;19.40;80.30;;;;;;5031309;28;20017;-71
2022/08/28 01:27:44;;;;;;;12.75;3.72;;;19.40;80.30;;;;;;5031966;28;20041;-71
2022/08/28 01:30:14;;;;;;;11.07;2.92;;;19.40;80.30;;;;;;5030742;28;20072;-71
2022/08/28 01:32:48;;;;;;;13.32;3.45;;;19.30;80.30;;;;;;5033683;28;20049;-70
2022/08/28 01:35:16;;;;;;;;;;;19.30;80.30;;;;;;5032097;28;20037;-70
2022/08/28 01:37:42;;;;;;;8.77;2.13;;;19.30;80.40;;;;;;5031755;28;19911;-70
2022/08/28 01:40:09;;;;;;;16.33;3.65;;;19.30;80.30;;;;;;5019517;28;20128;-71
2022/08/28 01:42:41;;;;;;;9.52;2.10;;;19.20;80.40;;;;;;5033800;28;20396;-70
2022/08/28 01:45:09;;;;;;;7.03;1.95;;;19.20;80.60;;;;;;5034254;28;20396;-70
2022/08/28 01:47:39;;;;;;;7.57;1.98;;;19.20;80.80;;;;;;5035633;28;20583;-70
2022/08/28 01:50:06;;;;;;;12.13;2.35;;;19.20;81.50;;;;;;5035408;28;20480;-70
2022/08/28 01:52:32;;;;;;;11.48;2.22;;;19.20;80.90;;;;;;5035970;28;20037;-70
2022/08/28 01:54:58;;;;;;;8.00;2.55;;;19.20;81.00;;;;;;5034442;28;20324;-70
2022/08/28 01:57:23;;;;;;;9.90;2.75;;;19.20;81.00;;;;;;5035534;28;20656;-70
2022/08/28 01:59:50;;;;;;;8.20;2.22;;;19.20;81.10;;;;;;5035596;28;20492;-70
2022/08/28 02:02:15;;;;;;;11.50;2.05;;;19.10;81.10;;;;;;5034316;28;20095;-70
2022/08/28 02:04:41;;;;;;;4.07;1.63;;;19.10;81.30;;;;;;5035939;28;20536;-70
2022/08/28 02:07:07;;;;;;;12.00;2.20;;;19.10;81.40;;;;;;5034800;28;20370;-71
2022/08/28 02:09:33;;;;;;;7.88;2.08;;;19.10;81.60;;;;;;5034346;28;20172;-70
2022/08/28 02:11:59;;;;;;;8.15;2.10;;;19.10;81.70;;;;;;5036732;28;20033;-71
2022/08/28 02:14:24;;;;;;;11.32;3.17;;;19.10;81.70;;;;;;5035478;28;20029;-70
2022/08/28 02:16:50;;;;;;;5.75;1.85;;;19.10;81.70;;;;;;5034865;28;20040;-70
2022/08/28 02:19:16;;;;;;;7.75;2.10;;;19.10;81.80;;;;;;5026199;28;20040;-71
2022/08/28 02:21:42;;;;;;;9.90;2.30;;;19.10;81.70;;;;;;5039254;28;20075;-71
2022/08/28 02:24:08;;;;;;;10.73;2.13;;;19.00;81.60;;;;;;5047698;28;20025;-70
2022/08/28 02:26:34;;;;;;;10.45;2.10;;;19.00;81.60;;;;;;5043323;28;20034;-70
2022/08/28 02:29:00;;;;;;;7.38;2.00;;;19.10;81.50;;;;;;5042406;28;20033;-70
2022/08/28 02:31:26;;;;;;;10.95;3.13;;;19.10;81.50;;;;;;5039276;28;20073;-70
2022/08/28 02:33:52;;;;;;;5.68;2.03;;;19.10;81.20;;;;;;5047207;28;20021;-70
2022/08/28 02:36:18;;;;;;;5.45;2.35;;;19.00;81.10;;;;;;5045561;28;20479;-70
2022/08/28 02:38:44;;;;;;;6.15;1.65;;;19.00;81.20;;;;;;5047093;28;20028;-70
2022/08/28 02:41:10;;;;;;;7.47;1.70;;;19.00;81.20;;;;;;5047090;28;21657;-71
2022/08/28 02:43:37;;;;;;;10.45;1.70;;;19.00;81.20;;;;;;5052911;28;20033;-71
2022/08/28 02:46:04;;;;;;;5.72;1.58;;;19.00;81.30;;;;;;5050000;28;20061;-70
2022/08/28 02:48:33;;;;;;;6.75;1.95;;;19.00;81.30;;;;;;5045663;28;20033;-70
2022/08/28 02:51:01;;;;;;;14.18;2.58;;;19.00;81.50;;;;;;5043001;28;20033;-71
2022/08/28 02:53:28;;;;;;;9.93;1.90;;;18.90;81.40;;;;;;5042259;28;20060;-70
2022/08/28 02:55:53;;;;;;;10.18;2.00;;;19.00;81.40;;;;;;5046540;28;20107;-70
2022/08/28 02:58:19;;;;;;;7.07;2.10;;;18.90;81.50;;;;;;5050156;28;20540;-70
2022/08/28 03:00:45;;;;;;;9.57;2.15;;;18.90;81.50;;;;;;5044051;28;20484;-70
2022/08/28 03:03:11;;;;;;;6.57;1.55;;;18.90;81.60;;;;;;5046257;28;20041;-70
2022/08/28 03:05:36;;;;;;;9.65;2.50;;;18.90;81.70;;;;;;5051207;28;20037;-71
2022/08/28 03:08:03;;;;;;;6.75;1.92;;;18.90;81.90;;;;;;5050591;28;20530;-70
2022/08/28 03:10:29;;;;;;;8.20;1.90;;;18.90;82.20;;;;;;5049669;28;20135;-70
2022/08/28 03:12:54;;;;;;;6.60;1.90;;;18.90;82.80;;;;;;5050302;28;20036;-70
2022/08/28 03:15:20;;;;;;;6.22;1.67;;;18.90;82.30;;;;;;5050896;28;20029;-71
2022/08/28 03:17:46;;;;;;;7.68;1.95;;;18.90;82.40;;;;;;5043587;28;20040;-70
2022/08/28 03:20:13;;;;;;;7.63;2.15;;;18.90;82.50;;;;;;5050015;28;20040;-70
2022/08/28 03:25:23;;;;;;;7.50;1.92;;;18.90;82.80;;;;;;5046997;28;20021;-71
2022/08/28 03:27:49;;;;;;;14.15;2.20;;;18.90;82.60;;;;;;5050830;28;20032;-70
2022/08/28 03:30:16;;;;;;;6.45;1.98;;;18.90;82.70;;;;;;5046440;28;20024;-71
2022/08/28 03:32:42;;;;;;;8.98;2.00;;;18.90;82.60;;;;;;5044810;28;20037;-71
2022/08/28 03:35:08;;;;;;;6.60;2.33;;;18.90;82.70;;;;;;5048117;28;20025;-71
2022/08/28 03:37:34;;;;;;;7.35;1.52;;;18.90;82.80;;;;;;5044123;28;20107;-71
2022/08/28 03:40:00;;;;;;;12.38;2.35;;;18.90;82.80;;;;;;5041988;28;20086;-71
2022/08/28 03:42:26;;;;;;;4.97;1.45;;;18.90;82.70;;;;;;5046888;28;20037;-71
2022/08/28 03:44:53;;;;;;;12.05;2.17;;;18.80;82.70;;;;;;5039090;28;20036;-71
2022/08/28 03:47:19;;;;;;;12.13;2.78;;;18.80;82.60;;;;;;5043093;28;20090;-71
2022/08/28 03:49:44;;;;;;;8.68;2.10;;;18.90;82.70;;;;;;5047543;28;20024;-71
2022/08/28 03:52:10;;;;;;;7.88;1.60;;;18.90;82.60;;;;;;5043750;28;20493;-71
2022/08/28 03:54:36;;;;;;;6.85;1.83;;;18.90;82.90;;;;;;5041814;28;20187;-71
2022/08/28 03:57:02;;;;;;;5.45;1.60;;;18.80;82.60;;;;;;5050050;28;20141;-71
2022/08/28 03:59:28;;;;;;;5.88;2.17;;;18.80;82.70;;;;;;5048844;28;20086;-71
2022/08/28 04:01:54;;;;;;;8.23;1.52;;;18.80;82.70;;;;;;5050184;28;20112;-71
2022/08/28 04:04:20;;;;;;;7.80;1.77;;;18.80;82.70;;;;;;5048274;28;20052;-71
2022/08/28 04:06:46;;;;;;;6.55;1.85;;;18.80;82.90;;;;;;5049218;28;20071;-71
2022/08/28 04:09:11;;;;;;;5.65;1.60;;;18.80;83.10;;;;;;5047584;28;20069;-71
2022/08/28 04:11:39;;;;;;;5.88;1.52;;;18.80;83.20;;;;;;5050887;28;20072;-72
2022/08/28 04:14:05;;;;;;;8.25;1.80;;;18.80;83.30;;;;;;5042813;28;20416;-72
2022/08/28 04:16:31;;;;;;;12.40;1.90;;;18.80;83.10;;;;;;5042544;28;20029;-72
2022/08/28 04:18:57;;;;;;;8.63;2.03;;;18.80;83.20;;;;;;5037707;28;20025;-70
2022/08/28 04:21:24;;;;;;;8.88;1.95;;;18.80;83.20;;;;;;5049658;28;20116;-71
2022/08/28 04:23:50;;;;;;;8.85;1.77;;;18.80;83.20;;;;;;5048125;28;20037;-70
2022/08/28 04:26:20;;;;;;;9.57;2.08;;;18.80;83.10;;;;;;5047732;28;20032;-70
2022/08/28 04:28:46;;;;;;;11.23;2.92;;;18.80;83.00;;;;;;5049727;28;20033;-70
2022/08/28 04:31:12;;;;;;;7.43;2.30;;;18.80;83.00;;;;;;5045021;28;20159;-70
2022/08/28 04:33:38;;;;;;;13.13;2.15;;;18.80;83.00;;;;;;5048804;28;20111;-70
2022/08/28 04:36:06;;;;;;;8.02;1.80;;;18.80;82.90;;;;;;5044230;28;20560;-70
2022/08/28 04:38:32;;;;;;;10.32;2.00;;;18.80;83.00;;;;;;5041165;28;20049;-71
2022/08/28 04:41:02;;;;;;;17.73;2.00;;;18.80;83.00;;;;;;5039248;28;20101;-69
2022/08/28 04:43:28;;;;;;;8.10;1.35;;;18.80;83.10;;;;;;5032455;28;20429;-70
2022/08/28 04:45:54;;;;;;;7.43;1.90;;;18.80;83.10;;;;;;5038248;28;20095;-70
2022/08/28 04:48:19;;;;;;;9.75;2.00;;;18.80;83.20;;;;;;5036116;28;20033;-70
2022/08/28 04:50:47;;;;;;;9.07;1.88;;;18.70;83.10;;;;;;5031040;28;20049;-70
2022/08/28 04:53:15;;;;;;;8.50;1.67;;;18.70;83.00;;;;;;5035185;28;20046;-70
2022/08/28 04:55:47;;;;;;;9.60;1.90;;;18.80;83.10;;;;;;5034675;28;20068;-70
2022/08/28 04:58:14;;;;;;;7.55;2.08;;;18.70;82.90;;;;;;5037350;28;20087;-70
2022/08/28 05:00:44;;;;;;;10.65;2.13;;;18.70;82.80;;;;;;5035061;28;20580;-70
2022/08/28 05:03:11;;;;;;;12.88;1.92;;;18.70;82.80;;;;;;5037066;28;20072;-70
2022/08/28 05:05:48;;;;;;;11.85;2.00;;;18.80;82.90;;;;;;5034176;28;20033;-70
2022/08/28 05:08:15;;;;;;;14.60;2.25;;;18.80;83.00;;;;;;5025720;28;20069;-70
2022/08/28 05:10:42;;;;;;;11.73;2.03;;;18.80;83.10;;;;;;5031003;28;20056;-70
2022/08/28 05:13:10;;;;;;;9.00;2.10;;;18.80;83.30;;;;;;5040322;28;20124;-70
2022/08/28 05:15:39;;;;;;;6.43;1.83;;;18.80;83.30;;;;;;5036597;28;20100;-70
2022/08/28 05:18:05;;;;;;;9.32;1.80;;;18.80;83.50;;;;;;5038801;28;20035;-70
2022/08/28 05:20:35;;;;;;;11.73;2.05;;;18.80;83.60;;;;;;5034922;28;20120;-70
2022/08/28 05:23:01;;;;;;;5.85;1.60;;;18.80;83.70;;;;;;5048644;28;20056;-70
2022/08/28 05:25:27;;;;;;;3.97;1.60;;;18.80;83.60;;;;;;5036681;28;20061;-70
2022/08/28 05:27:53;;;;;;;14.00;2.03;;;18.80;83.70;;;;;;5048523;28;20491;-70
2022/08/28 05:30:19;;;;;;;8.48;1.80;;;18.90;83.80;;;;;;5046521;28;20029;-70
2022/08/28 05:32:45;;;;;;;8.30;1.90;;;18.80;83.70;;;;;;5034091;28;20127;-70
2022/08/28 05:35:11;;;;;;;15.10;2.00;;;18.90;83.90;;;;;;5045177;28;20037;-70
2022/08/28 05:37:37;;;;;;;8.63;1.73;;;18.90;84.10;;;;;;5040944;28;20036;-70
2022/08/28 05:40:03;;;;;;;5.90;1.63;;;18.90;84.20;;;;;;5043336;28;20829;-70
2022/08/28 05:42:29;;;;;;;6.63;1.50;;;18.90;84.60;;;;;;5049863;28;20431;-70
2022/08/28 05:44:54;;;;;;;4.88;1.50;;;18.90;84.40;;;;;;5054602;28;20074;-70
2022/08/28 05:47:20;;;;;;;4.85;1.40;;;18.90;84.20;;;;;;5050261;28;20060;-70
2022/08/28 05:49:45;;;;;;;14.32;1.67;;;18.90;83.90;;;;;;5052783;28;20028;-70
2022/08/28 05:52:11;;;;;;;13.43;1.73;;;18.80;83.90;;;;;;5039710;28;20068;-70
2022/08/28 05:54:37;;;;;;;7.97;1.70;;;18.80;83.80;;;;;;5052187;28;20029;-70
2022/08/28 05:57:03;;;;;;;8.57;1.52;;;18.80;83.60;;;;;;5038122;28;20044;-71
2022/08/28 05:59:28;;;;;;;4.20;2.05;;;18.80;83.50;;;;;;5044067;28;20029;-70
2022/08/28 06:01:54;;;;;;;7.53;1.73;;;18.80;83.30;;;;;;5044318;28;20029;-70
2022/08/28 06:04:26;;;;;;;8.02;1.83;;;18.80;83.40;;;;;;5052291;28;20045;-70
2022/08/28 06:06:52;;;;;;;8.77;1.60;;;18.80;83.30;;;;;;5051750;28;20037;-70
2022/08/28 06:09:23;;;;;;;4.43;2.10;;;18.90;83.50;;;;;;5052404;28;20045;-70
2022/08/28 06:11:49;;;;;;;11.20;1.73;;;18.90;83.90;;;;;;5048745;28;20046;-70
2022/08/28 06:14:17;;;;;;;8.77;2.00;;;18.90;84.00;;;;;;5053520;28;20036;-70
2022/08/28 06:16:46;;;;;;;7.63;1.75;;;18.80;84.00;;;;;;5048399;28;20056;-69
2022/08/28 06:19:12;;;;;;;7.38;1.73;;;18.90;83.90;;;;;;5043035;28;20029;-70
2022/08/28 06:21:42;;;;;;;12.57;1.85;;;18.90;83.80;;;;;;5037905;28;20037;-71
2022/08/28 06:24:12;;;;;;;6.78;1.52;;;18.90;83.70;;;;;;5034094;28;20040;-70
2022/08/28 06:26:38;;;;;;;9.52;1.70;;;18.90;83.90;;;;;;5033810;28;20036;-69
2022/08/28 06:29:07;;;;;;;6.38;1.35;;;18.90;84.10;;;;;;5044951;28;20439;-70
2022/08/28 06:31:33;;;;;;;5.53;1.73;;;18.90;84.00;;;;;;5040367;28;20140;-70
2022/08/28 06:34:00;;;;;;;7.63;1.77;;;18.90;84.40;;;;;;5040816;28;20108;-70
2022/08/28 06:36:28;;;;;;;17.50;2.45;;;18.90;84.40;;;;;;5053097;28;20133;-70
2022/08/28 06:38:56;;;;;;;5.47;2.10;;;19.00;84.40;;;;;;5053135;28;20039;-70
2022/08/28 06:41:23;;;;;;;4.07;1.40;;;19.10;84.60;;;;;;5046307;28;20481;-69
2022/08/28 06:43:50;;;;;;;4.72;1.60;;;19.00;84.40;;;;;;5045024;28;20029;-70
2022/08/28 06:46:16;;;;;;;4.07;1.30;;;19.10;84.30;;;;;;5045696;28;20040;-69
2022/08/28 06:48:42;;;;;;;5.22;1.75;;;19.10;84.50;;;;;;5033399;28;20053;-69
2022/08/28 06:51:09;;;;;;;7.20;1.73;;;19.10;84.50;;;;;;5033474;28;20472;-70
2022/08/28 06:53:37;;;;;;;5.47;1.60;;;19.10;84.60;;;;;;5037835;28;20029;-70
2022/08/28 06:56:10;;;;;;;5.43;1.13;;;19.10;84.50;;;;;;5045650;28;20503;-69
2022/08/28 06:58:39;;;;;;;6.68;1.92;;;19.20;85.20;;;;;;5049616;28;20033;-68
2022/08/28 07:01:22;;;;;;;12.07;2.05;;;19.20;85.90;;;;;;5052592;28;20036;-71
2022/08/28 07:03:50;;;;;;;7.57;1.50;;;19.20;85.70;;;;;;5049157;28;20148;-70
2022/08/28 07:06:16;;;;;;;9.60;1.63;;;19.10;85.60;;;;;;5048893;28;20060;-70
2022/08/28 07:08:43;;;;;;;12.57;1.88;;;19.20;85.60;;;;;;5037358;28;20388;-70
2022/08/28 07:11:12;;;;;;;7.85;1.67;;;19.20;85.50;;;;;;5045268;28;20500;-71
2022/08/28 07:13:37;;;;;;;8.20;1.63;;;19.30;85.60;;;;;;5046496;28;20102;-70
2022/08/28 07:16:03;;;;;;;8.10;1.42;;;19.30;85.70;;;;;;5049297;28;20508;-70
2022/08/28 07:18:29;;;;;;;4.18;1.58;;;19.30;86.00;;;;;;5038590;28;20036;-70
2022/08/28 07:20:56;;;;;;;5.65;1.77;;;19.30;86.10;;;;;;5042476;28;20051;-71
2022/08/28 07:23:23;;;;;;;28.85;3.00;;;19.30;86.70;;;;;;5043806;28;20115;-71
2022/08/28 07:25:48;;;;;;;8.45;1.88;;;19.40;86.50;;;;;;5046079;28;20473;-71
2022/08/28 07:28:15;;;;;;;4.25;1.60;;;19.40;86.00;;;;;;5047192;28;20104;-72
2022/08/28 07:30:41;;;;;;;5.85;1.70;;;19.50;85.80;;;;;;5046231;28;20037;-71
2022/08/28 07:33:07;;;;;;;6.20;2.55;;;19.40;86.10;;;;;;5043064;28;20048;-71
2022/08/28 07:35:32;;;;;;;4.43;1.48;;;19.40;85.80;;;;;;5047675;28;20025;-71
2022/08/28 07:37:58;;;;;;;9.00;1.90;;;19.40;85.90;;;;;;5041241;28;20025;-71
2022/08/28 07:40:24;;;;;;;19.40;1.90;;;19.40;85.60;;;;;;5045896;28;20025;-71
2022/08/28 07:45:34;;;;;;;1.50;1.10;;;19.50;86.20;;;;;;5046918;28;20017;-71
2022/08/28 07:48:07;;;;;;;6.25;1.67;;;19.50;86.20;;;;;;5043148;28;20519;-71
2022/08/28 07:50:33;;;;;;;9.95;1.25;;;19.50;86.00;;;;;;5049861;28;20028;-71
2022/08/28 07:52:59;;;;;;;5.20;1.55;;;19.50;86.90;;;;;;5048254;28;20388;-70
2022/08/28 07:55:28;;;;;;;3.22;1.35;;;19.50;86.50;;;;;;5040100;28;20025;-71
2022/08/28 07:57:54;;;;;;;4.25;1.27;;;19.50;86.20;;;;;;5048041;28;20037;-71
2022/08/28 08:00:20;;;;;;;8.23;1.77;;;19.50;86.80;;;;;;5044834;28;20037;-71
2022/08/28 08:02:46;;;;;;;6.53;2.00;;;19.50;85.70;;;;;;5049381;28;20029;-72
2022/08/28 08:05:12;;;;;;;5.82;1.45;;;19.60;85.90;;;;;;5047208;28;20032;-71
2022/08/28 08:07:38;;;;;;;4.07;1.65;;;19.60;86.00;;;;;;5047899;28;20031;-71
2022/08/28 08:10:06;;;;;;;3.58;1.15;;;19.60;85.60;;;;;;5042449;28;20463;-72
2022/08/28 08:12:33;;;;;;;8.95;2.25;;;19.70;86.50;;;;;;5042038;28;20055;-72
2022/08/28 08:14:59;;;;;;;11.88;2.03;;;19.60;86.10;;;;;;5038338;28;20033;-72
2022/08/28 08:17:25;;;;;;;5.68;1.42;;;19.70;85.80;;;;;;5046632;28;20029;-69
2022/08/28 08:19:50;;;;;;;5.68;1.90;;;19.80;86.00;;;;;;5041289;28;20369;-69
2022/08/28 08:22:16;;;;;;;2.85;1.27;;;19.80;85.50;;;;;;5039211;28;20026;-69
2022/08/28 08:24:42;;;;;;;4.20;1.50;;;19.80;85.30;;;;;;5035961;28;20030;-69
2022/08/28 08:27:09;;;;;;;6.32;1.65;;;19.90;85.30;;;;;;5042679;28;20075;-70
2022/08/28 08:29:37;;;;;;;11.00;1.60;;;19.90;85.00;;;;;;5047441;28;20039;-71
2022/08/28 08:32:08;;;;;;;5.90;1.73;;;19.90;84.90;;;;;;5043440;28;20041;-70
2022/08/28 08:34:40;;;;;;;10.25;1.92;;;20.00;84.50;;;;;;5044606;28;20040;-70
2022/08/28 08:37:06;;;;;;;16.50;1.67;;;20.00;85.30;;;;;;5044801;28;20033;-71
2022/08/28 08:39:33;;;;;;;2.55;1.13;;;20.10;85.60;;;;;;5046530;28;20036;-70
2022/08/28 08:42:02;;;;;;;6.97;1.52;;;20.10;85.60;;;;;;5047650;28;20036;-70
2022/08/28 08:44:35;;;;;;;6.47;1.65;;;20.20;85.70;;;;;;5045070;28;20033;-70
2022/08/28 08:47:12;;;;;;;12.88;2.28;;;20.20;85.10;;;;;;5047921;28;20545;-70
2022/08/28 08:49:48;;;;;;;2.38;1.38;;;20.20;84.70;;;;;;5045334;28;20037;-70
2022/08/28 08:52:22;;;;;;;12.85;1.40;;;20.20;84.30;;;;;;5045547;28;20045;-70
2022/08/28 08:55:30;;;;;;;3.33;1.55;;;20.20;84.60;;;;;;5049765;28;20400;-70
2022/08/28 08:58:13;;;;;;;5.65;1.73;;;20.30;84.50;;;;;;5039328;28;20039;-71
2022/08/28 09:00:52;;;;;;;5.10;1.77;;;20.30;84.40;;;;;;5047286;28;20037;-71
2022/08/28 09:04:01;;;;;;;5.90;1.73;;;20.40;84.10;;;;;;5048716;28;20029;-70
2022/08/28 09:06:40;;;;;;;11.70;1.55;;;20.40;84.60;;;;;;5046958;28;20468;-72
2022/08/28 09:09:17;;;;;;;6.25;1.60;;;20.50;83.90;;;;;;5048894;28;20072;-71
2022/08/28 09:11:56;;;;;;;6.78;2.05;;;20.40;83.20;;;;;;5047963;28;20038;-72
2022/08/28 09:14:48;;;;;;;10.13;2.00;;;20.50;83.10;;;;;;5050875;28;20021;-71
2022/08/28 09:17:17;;;;;;;4.88;1.35;;;20.50;82.80;;;;;;5051124;28;20033;-72
2022/08/28 09:19:42;;;;;;;10.55;1.77;;;20.60;83.60;;;;;;5045461;28;20037;-72
2022/08/28 09:22:09;;;;;;;8.68;1.98;;;20.60;83.00;;;;;;5049134;28;20059;-70
2022/08/28 09:24:37;;;;;;;7.80;1.80;;;20.60;83.10;;;;;;5049658;28;20251;-72
2022/08/28 09:27:03;;;;;;;5.07;1.70;;;20.70;82.90;;;;;;5040930;28;20514;-69
2022/08/28 09:29:35;;;;;;;8.90;2.15;;;20.70;82.80;;;;;;5049774;28;20132;-70
2022/08/28 09:32:30;;;;;;;6.30;1.83;;;20.70;82.60;;;;;;5049943;28;20083;-71
2022/08/28 09:34:59;;;;;;;4.75;1.48;;;20.80;82.60;;;;;;5046908;28;20457;-71
2022/08/28 09:37:25;;;;;;;7.07;2.05;;;20.80;82.60;;;;;;5048796;28;20488;-72
2022/08/28 09:40:16;;;;;;;4.20;1.63;;;20.80;82.50;;;;;;5041658;28;20117;-70
2022/08/28 09:45:51;;;;;;;7.15;2.13;;;20.90;82.70;;;;;;5045654;28;20049;-71
2022/08/28 09:48:29;;;;;;;9.20;2.00;;;20.90;82.60;;;;;;5049009;28;20040;-70
2022/08/28 09:51:07;;;;;;;6.93;1.77;;;21.00;82.30;;;;;;5045482;28;20077;-70
2022/08/28 09:53:37;;;;;;;7.53;1.90;;;21.00;81.60;;;;;;5048005;28;20124;-71
2022/08/28 09:56:17;;;;;;;5.47;1.52;;;21.00;81.50;;;;;;5046607;28;20032;-71
2022/08/28 09:58:45;;;;;;;7.05;1.73;;;21.00;81.80;;;;;;5046075;28;20032;-71
2022/08/28 10:01:44;;;;;;;5.00;1.38;;;21.10;82.50;;;;;;5046980;28;20036;-70
2022/08/28 10:04:16;;;;;;;5.20;1.50;;;21.10;81.90;;;;;;5049045;28;20036;-71
2022/08/28 10:06:58;;;;;;;6.32;1.48;;;21.10;82.80;;;;;;5043018;28;20382;-71
2022/08/28 10:10:05;;;;;;;7.43;1.85;;;21.10;81.80;;;;;;5049502;28;20099;-71
2022/08/28 10:12:40;;;;;;;4.85;1.67;;;21.10;81.70;;;;;;5039006;28;20045;-70
2022/08/28 10:15:30;;;;;;;7.65;1.40;;;21.20;81.80;;;;;;5043781;28;20082;-71
2022/08/28 10:18:07;;;;;;;6.78;1.50;;;21.20;82.20;;;;;;5046557;28;20480;-71
2022/08/28 10:20:57;;;;;;;5.22;1.60;;;21.20;81.80;;;;;;5046293;28;20032;-71
2022/08/28 10:23:45;;;;;;;1.95;1.02;;;21.20;81.30;;;;;;5047188;28;20025;-71
2022/08/28 10:26:29;;;;;;;4.57;1.67;;;21.20;80.80;;;;;;5052093;28;20381;-71
2022/08/28 10:29:48;;;;;;;5.88;1.65;;;21.30;80.90;;;;;;5035905;28;20055;-71
2022/08/28 10:32:32;;;;;;;6.18;1.63;;;21.30;80.20;;;;;;5036209;28;20147;-71
2022/08/28 10:35:19;;;;;;;8.18;2.40;;;21.30;80.50;;;;;;5036826;28;20057;-72
2022/08/28 10:38:02;;;;;;;4.93;1.35;;;21.30;80.20;;;;;;5033745;28;20520;-71
2022/08/28 10:40:37;;;;;;;5.80;1.48;;;21.40;80.10;;;;;;5048159;28;20073;-72
2022/08/28 10:43:15;;;;;;;4.15;1.42;;;21.40;80.40;;;;;;5037220;28;20126;-72
2022/08/28 10:45:41;;;;;;;3.53;1.30;;;21.50;81.10;;;;;;5035985;28;20047;-71
2022/08/28 10:48:18;;;;;;;5.00;1.20;;;21.50;81.00;;;;;;5034755;28;20034;-72
2022/08/28 10:50:59;;;;;;;3.63;1.23;;;21.50;80.80;;;;;;5039464;28;20026;-71
2022/08/28 10:53:36;;;;;;;10.93;1.95;;;21.50;81.50;;;;;;5043933;28;20523;-72
2022/08/28 10:56:14;;;;;;;6.38;1.60;;;21.60;80.50;;;;;;5036887;28;20037;-71
2022/08/28 10:58:40;;;;;;;4.72;1.67;;;21.70;81.40;;;;;;5042682;28;20052;-71
2022/08/28 11:01:10;;;;;;;5.68;1.67;;;21.70;81.20;;;;;;5043886;28;20063;-71
2022/08/28 11:03:45;;;;;;;4.43;1.58;;;21.70;80.70;;;;;;5047213;28;20065;-71
2022/08/28 11:06:29;;;;;;;5.50;1.90;;;21.70;79.90;;;;;;5050196;28;20045;-71
2022/08/28 11:09:23;;;;;;;5.70;1.92;;;21.80;79.60;;;;;;5043279;28;20071;-71
2022/08/28 11:11:48;;;;;;;7.10;1.60;;;21.80;79.20;;;;;;5047563;28;20041;-72
2022/08/28 11:14:31;;;;;;;3.85;1.52;;;21.80;79.60;;;;;;5042642;28;20112;-71
2022/08/28 11:17:04;;;;;;;3.63;1.40;;;21.90;79.20;;;;;;5048028;28;20029;-71
2022/08/28 11:19:54;;;;;;;5.50;1.70;;;21.90;79.50;;;;;;5033092;28;20087;-71
2022/08/28 11:22:34;;;;;;;4.30;1.63;;;22.00;79.20;;;;;;5029992;28;20041;-71
2022/08/28 11:25:16;;;;;;;7.13;1.63;;;22.00;78.80;;;;;;5035175;28;20026;-72
2022/08/28 11:28:21;;;;;;;8.63;2.08;;;22.00;79.00;;;;;;5041928;28;20025;-73
2022/08/28 11:31:03;;;;;;;3.63;1.48;;;22.10;79.50;;;;;;5044390;28;20047;-72
2022/08/28 11:33:47;;;;;;;7.18;2.13;;;22.00;79.80;;;;;;5025834;28;20051;-71
2022/08/28 11:36:18;;;;;;;4.72;1.70;;;22.00;79.40;;;;;;5047529;28;20460;-74
2022/08/28 11:38:44;;;;;;;7.93;2.10;;;22.10;79.10;;;;;;5051884;28;20033;-71
2022/08/28 11:41:21;;;;;;;6.70;1.27;;;22.10;79.20;;;;;;5037831;28;20040;-73
2022/08/28 11:44:07;;;;;;;12.57;2.33;;;22.10;79.60;;;;;;5051376;28;20032;-72
2022/08/28 11:46:47;;;;;;;7.45;2.10;;;22.10;80.30;;;;;;5031600;28;20072;-74
2022/08/28 11:49:25;;;;;;;7.57;1.58;;;22.20;79.60;;;;;;5037056;28;20127;-76
2022/08/28 11:52:30;;;;;;;8.75;2.10;;;22.20;81.10;;;;;;5034611;28;20083;-73
2022/08/28 11:55:14;;;;;;;10.82;1.80;;;22.20;80.70;;;;;;5028629;28;20033;-74
2022/08/28 11:57:56;;;;;;;4.28;1.10;;;22.20;80.10;;;;;;5021386;28;20028;-72
2022/08/28 12:00:57;;;;;;;4.75;0.93;;;22.30;81.30;;;;;;5031840;28;20545;-73
2022/08/28 12:03:31;;;;;;;2.05;1.25;;;22.30;82.50;;;;;;5033313;28;20029;-67
2022/08/28 12:05:59;;;;;;;11.43;1.83;;;22.30;81.50;;;;;;5034471;28;20111;-80
2022/08/28 12:08:43;;;;;;;5.20;1.80;;;22.20;80.20;;;;;;5032288;28;20029;-73
2022/08/28 12:11:29;;;;;;;5.70;1.27;;;22.20;80.30;;;;;;5032169;28;20045;-72
2022/08/28 12:13:56;;;;;;;4.82;1.50;;;22.20;81.60;;;;;;5027238;28;20179;-74
2022/08/28 12:16:22;;;;;;;8.30;1.80;;;22.20;81.20;;;;;;5049216;28;20037;-74
2022/08/28 12:18:47;;;;;;;6.88;1.77;;;22.20;80.80;;;;;;5033538;28;20024;-75
2022/08/28 12:21:21;;;;;;;8.93;1.20;;;22.20;80.10;;;;;;5038928;28;20033;-73
2022/08/28 12:24:01;;;;;;;8.10;1.50;;;22.20;80.00;;;;;;5031379;28;20037;-73
2022/08/28 12:26:37;;;;;;;3.80;1.65;;;22.30;79.50;;;;;;5044763;28;20037;-72
2022/08/28 12:29:16;;;;;;;7.60;1.83;;;22.30;80.00;;;;;;5043737;28;20063;-72
2022/08/28 12:32:10;;;;;;;5.85;1.60;;;22.30;79.90;;;;;;5020005;28;20045;-74
2022/08/28 12:34:44;;;;;;;5.32;1.38;;;22.30;79.90;;;;;;5031798;28;20064;-72
2022/08/28 12:37:33;;;;;;;3.47;1.50;;;22.30;79.90;;;;;;5032430;28;20033;-72
2022/08/28 12:40:17;;;;;;;8.00;1.90;;;22.40;80.50;;;;;;5032463;28;20060;-72
2022/08/28 12:43:01;;;;;;;5.97;1.42;;;22.40;80.00;;;;;;5034141;28;20025;-72
2022/08/28 12:45:35;;;;;;;3.53;1.40;;;22.50;80.50;;;;;;5049914;28;20442;-72
2022/08/28 12:48:14;;;;;;;4.05;1.42;;;22.50;79.80;;;;;;5042206;28;20036;-73
2022/08/28 12:50:40;;;;;;;2.65;0.98;;;22.50;80.00;;;;;;5035535;28;20063;-72
2022/08/28 12:53:13;;;;;;;2.67;1.10;;;22.50;80.70;;;;;;5040046;28;20561;-71
2022/08/28 12:55:39;;;;;;;7.13;1.73;;;22.60;80.10;;;;;;5035185;28;20034;-73
2022/08/28 12:58:25;;;;;;;2.40;1.00;;;22.60;80.00;;;;;;5042629;28;20581;-74
2022/08/28 13:00:55;;;;;;;7.25;1.48;;;22.60;80.50;;;;;;5042905;28;20029;-75
2022/08/28 13:03:21;;;;;;;4.97;1.70;;;22.60;81.00;;;;;;5044336;28;20083;-74
2022/08/28 13:05:56;;;;;;;2.03;1.42;;;22.60;80.50;;;;;;5038080;28;20037;-71
2022/08/28 13:08:22;;;;;;;9.18;1.27;;;22.70;80.90;;;;;;5040732;28;20037;-74
2022/08/28 13:10:49;;;;;;;8.52;1.58;;;22.70;80.60;;;;;;5042956;28;20119;-75
2022/08/28 13:13:43;;;;;;;6.03;1.50;;;22.70;80.20;;;;;;5027123;28;20076;-74
2022/08/28 13:16:11;;;;;;;7.53;1.60;;;22.70;80.10;;;;;;5046039;28;20056;-74